Time;durP1;ratioP1;P1;durP2;ratioP2;P2;SDS_P1;SDS_P2;PMS_P1;PMS_P2;Temp;Humidity;BMP_temperature;BMP_pressure;BME280_temperature;BME280_humidity;BME280_pressure;Samples;Min_cycle;Max_cycle;Signal;HPM_P1;HPM_P2
2024/03/01 00:02:22;;;;;;;4.95;3.80;;;15.30;77.00;;;;;;4222367;27;20051;-40
2024/03/01 00:05:04;;;;;;;6.03;4.15;;;15.30;77.00;;;;;;4221589;27;20514;-43
2024/03/01 00:07:44;;;;;;;;;;;15.20;76.80;;;;;;4212910;27;20556;-41
2024/03/01 00:10:25;;;;;;;4.03;3.47;;;15.20;76.70;;;;;;4229226;27;19926;-43
2024/03/01 00:13:08;;;;;;;5.25;3.70;;;15.20;77.40;;;;;;4239697;27;20061;-41
2024/03/01 00:15:49;;;;;;;4.65;4.18;;;15.20;77.00;;;;;;4203276;27;20056;-41
2024/03/01 00:18:30;;;;;;;6.15;4.50;;;15.20;76.90;;;;;;4225927;27;20050;-45
2024/03/01 00:21:13;;;;;;;4.85;3.75;;;15.20;76.70;;;;;;4238693;27;20069;-43
2024/03/01 00:23:54;;;;;;;7.20;3.97;;;15.20;76.50;;;;;;4237121;27;20054;-44
2024/03/01 00:26:35;;;;;;;4.63;3.90;;;15.20;76.60;;;;;;4232672;27;20502;-41
2024/03/01 00:29:18;;;;;;;5.35;4.32;;;15.10;76.80;;;;;;4204753;28;20071;-46
2024/03/01 00:31:58;;;;;;;4.63;4.10;;;15.10;76.90;;;;;;4222006;28;20062;-40
2024/03/01 00:34:39;;;;;;;5.35;3.70;;;15.10;77.20;;;;;;4221506;27;20053;-43
2024/03/01 00:37:21;;;;;;;4.40;3.58;;;15.10;77.30;;;;;;4204457;28;20507;-41
2024/03/01 00:40:03;;;;;;;6.35;4.20;;;15.10;77.40;;;;;;4217809;27;20055;-43
2024/03/01 00:42:43;;;;;;;;;;;15.10;77.60;;;;;;4206813;27;20055;-41
2024/03/01 00:45:25;;;;;;;5.28;3.70;;;15.10;77.50;;;;;;4221577;28;20034;-43
2024/03/01 00:48:09;;;;;;;4.18;3.78;;;15.10;78.40;;;;;;4210760;27;20503;-41
2024/03/01 00:50:50;;;;;;;4.07;3.35;;;15.10;77.80;;;;;;4220354;27;20055;-43
2024/03/01 00:53:31;;;;;;;4.78;3.85;;;15.10;77.70;;;;;;4203744;28;20520;-40
2024/03/01 00:56:13;;;;;;;4.07;3.67;;;15.10;78.50;;;;;;4189683;28;20404;-40
2024/03/01 00:58:54;;;;;;;4.53;3.60;;;15.00;77.50;;;;;;4219041;27;20124;-43
2024/03/01 01:01:36;;;;;;;5.97;4.25;;;15.00;77.50;;;;;;4235366;27;20058;-43
2024/03/01 01:04:17;;;;;;;5.13;4.13;;;15.00;77.40;;;;;;4189022;28;20105;-43
2024/03/01 01:06:58;;;;;;;4.82;4.30;;;15.00;77.70;;;;;;4220244;27;20058;-43
2024/03/01 01:09:40;;;;;;;4.35;3.78;;;15.00;77.70;;;;;;4194938;28;20059;-41
2024/03/01 01:12:21;;;;;;;4.80;3.78;;;15.00;77.70;;;;;;4203232;28;20607;-41
2024/03/01 01:15:02;;;;;;;5.40;4.10;;;15.00;77.80;;;;;;4220803;28;20058;-43
2024/03/01 01:17:45;;;;;;;6.45;4.47;;;15.00;77.80;;;;;;4206513;28;20141;-43
2024/03/01 01:20:29;;;;;;;4.28;3.88;;;15.00;77.70;;;;;;4203965;28;20529;-41
2024/03/01 01:23:11;;;;;;;5.68;4.20;;;15.00;77.80;;;;;;4207156;28;20051;-41
2024/03/01 01:25:52;;;;;;;5.25;4.20;;;15.00;78.00;;;;;;4218293;27;20059;-41
2024/03/01 01:28:33;;;;;;;4.18;3.72;;;15.00;77.90;;;;;;4222256;27;20135;-43
2024/03/01 01:31:14;;;;;;;5.35;3.97;;;15.00;77.90;;;;;;4224450;27;20092;-43
2024/03/01 01:33:57;;;;;;;6.22;3.65;;;15.00;78.00;;;;;;4237447;27;20437;-41
2024/03/01 01:36:40;;;;;;;4.53;3.83;;;15.00;77.90;;;;;;4232281;27;20054;-43
2024/03/01 01:39:21;;;;;;;6.07;4.00;;;15.00;77.80;;;;;;4215638;27;20109;-44
2024/03/01 01:42:02;;;;;;;9.55;4.43;;;15.00;78.00;;;;;;4204103;28;20051;-43
2024/03/01 01:44:43;;;;;;;5.95;3.70;;;14.90;77.90;;;;;;4196816;28;20059;-41
2024/03/01 01:47:25;;;;;;;3.95;3.55;;;14.90;78.10;;;;;;4204917;27;20055;-44
2024/03/01 01:50:09;;;;;;;4.78;3.60;;;14.90;78.00;;;;;;4187334;28;20054;-41
2024/03/01 01:52:50;;;;;;;5.55;4.25;;;14.90;78.10;;;;;;4203739;28;20397;-44
2024/03/01 01:55:32;;;;;;;4.72;3.63;;;14.90;78.10;;;;;;4215267;28;20058;-40
2024/03/01 01:58:14;;;;;;;4.70;3.95;;;14.90;78.10;;;;;;4221331;28;20055;-43
2024/03/01 02:00:56;;;;;;;4.80;3.75;;;14.90;78.20;;;;;;4221667;27;20094;-40
2024/03/01 02:03:38;;;;;;;;;;;14.90;78.20;;;;;;4205145;28;20067;-42
2024/03/01 02:06:21;;;;;;;4.47;3.60;;;14.90;78.20;;;;;;4205698;27;19947;-42
2024/03/01 02:09:12;;;;;;;5.30;3.90;;;14.90;79.00;;;;;;4202185;28;20181;-43
2024/03/01 02:11:53;;;;;;;5.90;3.70;;;14.90;79.60;;;;;;4202636;28;20062;-41
2024/03/01 02:14:34;;;;;;;3.72;3.42;;;14.90;80.10;;;;;;4220386;28;20078;-43
2024/03/01 02:17:15;;;;;;;6.28;4.10;;;14.90;80.10;;;;;;4236488;27;20053;-41
2024/03/01 02:19:56;;;;;;;5.77;3.90;;;15.00;80.00;;;;;;4235150;27;20066;-41
2024/03/01 02:22:39;;;;;;;;;;;15.00;79.60;;;;;;4187832;28;20048;-43
2024/03/01 02:25:21;;;;;;;4.07;3.50;;;15.10;79.80;;;;;;4209180;28;20379;-41
2024/03/01 02:28:03;;;;;;;3.63;3.28;;;15.10;80.10;;;;;;4209776;28;20043;-44
2024/03/01 02:30:44;;;;;;;6.50;3.45;;;15.10;79.80;;;;;;4219566;27;20050;-41
2024/03/01 02:33:25;;;;;;;4.97;4.00;;;15.10;80.00;;;;;;4237004;27;20184;-43
2024/03/01 02:36:07;;;;;;;4.20;3.80;;;15.10;80.50;;;;;;4220737;27;20055;-41
2024/03/01 02:38:48;;;;;;;5.30;3.28;;;15.20;79.50;;;;;;4219257;28;20096;-41
2024/03/01 02:41:30;;;;;;;4.93;3.92;;;15.20;79.40;;;;;;4220158;28;20051;-41
2024/03/01 02:44:12;;;;;;;5.43;3.80;;;15.20;79.50;;;;;;4220182;28;20046;-41
2024/03/01 02:46:53;;;;;;;4.03;3.63;;;15.30;79.50;;;;;;4187685;28;20051;-41
2024/03/01 02:49:34;;;;;;;4.68;3.88;;;15.40;79.50;;;;;;4202852;28;20177;-41
2024/03/01 02:52:15;;;;;;;6.38;4.38;;;15.40;78.90;;;;;;4213286;27;20099;-40
2024/03/01 02:54:56;;;;;;;5.93;4.20;;;15.50;79.10;;;;;;4220437;27;20046;-52
2024/03/01 02:57:38;;;;;;;4.65;4.25;;;15.50;78.60;;;;;;4224160;27;20082;-56
2024/03/01 03:00:21;;;;;;;5.05;4.55;;;15.50;78.40;;;;;;4223675;27;20062;-40
2024/03/01 03:03:02;;;;;;;4.38;3.28;;;15.50;78.50;;;;;;4213605;27;20101;-54
2024/03/01 03:05:44;;;;;;;5.53;4.07;;;15.60;78.40;;;;;;4228853;27;20054;-40
2024/03/01 03:08:25;;;;;;;4.40;4.00;;;15.50;78.50;;;;;;4240005;27;20172;-52
2024/03/01 03:11:08;;;;;;;5.38;4.53;;;15.50;78.60;;;;;;4217217;28;20051;-51
2024/03/01 03:13:50;;;;;;;9.35;4.25;;;15.50;78.40;;;;;;4223530;27;20415;-40
2024/03/01 03:16:31;;;;;;;4.53;3.90;;;15.60;78.40;;;;;;4188369;28;20056;-54
2024/03/01 03:19:13;;;;;;;5.07;4.15;;;15.60;78.40;;;;;;4192947;28;20497;-51
2024/03/01 03:21:54;;;;;;;5.72;4.57;;;15.60;78.40;;;;;;4206373;28;20051;-54
2024/03/01 03:24:35;;;;;;;4.78;4.32;;;15.60;78.30;;;;;;4221012;27;20529;-53
2024/03/01 03:27:16;;;;;;;5.05;4.50;;;15.60;78.20;;;;;;4240326;27;20109;-40
2024/03/01 03:29:59;;;;;;;5.95;4.40;;;15.70;78.20;;;;;;4239969;27;20556;-40
2024/03/01 03:32:40;;;;;;;4.70;4.20;;;15.70;78.10;;;;;;4200195;27;20047;-54
2024/03/01 03:35:23;;;;;;;4.68;4.18;;;15.70;78.50;;;;;;4201932;28;20069;-55
2024/03/01 03:38:04;;;;;;;4.72;4.07;;;15.70;78.30;;;;;;4222907;28;20078;-40
2024/03/01 03:40:45;;;;;;;5.22;4.70;;;15.70;78.30;;;;;;4205507;28;20151;-40
2024/03/01 03:43:26;;;;;;;7.00;4.57;;;15.70;78.90;;;;;;4219629;27;20062;-55
2024/03/01 03:46:09;;;;;;;5.82;3.97;;;15.70;77.90;;;;;;4207272;28;20132;-52
2024/03/01 03:48:50;;;;;;;5.50;4.85;;;15.70;78.00;;;;;;4207514;27;20055;-53
2024/03/01 03:51:31;;;;;;;5.53;4.47;;;15.70;77.70;;;;;;4206589;28;20055;-40
2024/03/01 03:54:16;;;;;;;5.32;4.55;;;15.70;77.80;;;;;;4206556;28;20073;-52
2024/03/01 03:56:56;;;;;;;6.22;4.95;;;15.70;78.10;;;;;;4210450;27;20181;-55
2024/03/01 03:59:37;;;;;;;7.80;4.57;;;15.70;78.40;;;;;;4208986;27;20070;-50
2024/03/01 04:02:20;;;;;;;5.90;4.70;;;15.70;78.20;;;;;;4207050;28;20572;-40
2024/03/01 04:05:01;;;;;;;11.10;4.97;;;15.80;78.00;;;;;;4226080;27;20108;-55
2024/03/01 04:07:43;;;;;;;;;;;15.80;77.60;;;;;;4221259;27;20381;-42
2024/03/01 04:10:24;;;;;;;8.25;5.03;;;15.80;77.80;;;;;;4188621;28;19926;-41
2024/03/01 04:13:07;;;;;;;7.18;4.93;;;15.80;78.10;;;;;;4189988;28;20195;-40
2024/03/01 04:15:49;;;;;;;5.32;4.78;;;15.80;77.80;;;;;;4209402;27;20043;-40
2024/03/01 04:18:33;;;;;;;6.03;5.05;;;15.80;77.70;;;;;;4218133;27;20055;-40
2024/03/01 04:21:14;;;;;;;5.15;4.65;;;15.80;77.60;;;;;;4204687;28;20162;-41
2024/03/01 04:23:56;;;;;;;7.65;5.75;;;15.80;77.70;;;;;;4203573;28;20414;-54
2024/03/01 04:26:37;;;;;;;6.38;4.93;;;15.70;77.60;;;;;;4222177;27;20173;-40
2024/03/01 04:29:18;;;;;;;5.78;5.18;;;15.70;78.10;;;;;;4203917;28;20097;-57
2024/03/01 04:31:59;;;;;;;7.28;5.75;;;15.70;78.20;;;;;;4221202;28;20050;-57
2024/03/01 04:34:41;;;;;;;9.35;5.82;;;15.80;78.20;;;;;;4220211;27;20051;-53
2024/03/01 04:37:23;;;;;;;7.57;5.80;;;15.80;77.90;;;;;;4220912;28;20404;-55
2024/03/01 04:40:05;;;;;;;7.93;5.97;;;15.80;77.80;;;;;;4204738;28;20156;-41
2024/03/01 04:42:46;;;;;;;7.30;5.90;;;15.80;77.70;;;;;;4205014;27;20537;-41
2024/03/01 04:45:27;;;;;;;7.13;5.55;;;15.80;78.50;;;;;;4197729;28;20543;-54
2024/03/01 04:48:08;;;;;;;8.05;5.63;;;15.80;77.60;;;;;;4203694;28;20424;-41
2024/03/01 04:50:52;;;;;;;5.70;5.05;;;15.80;78.20;;;;;;4204567;28;20116;-55
2024/03/01 04:53:33;;;;;;;7.25;5.68;;;15.70;78.50;;;;;;4222644;27;20066;-54
2024/03/01 04:56:14;;;;;;;7.22;5.72;;;15.80;78.40;;;;;;4214672;27;20514;-53
2024/03/01 04:58:55;;;;;;;8.05;5.45;;;15.80;78.40;;;;;;4221599;28;20082;-40
2024/03/01 05:01:39;;;;;;;7.18;5.75;;;15.80;78.40;;;;;;4220708;27;20106;-40
2024/03/01 05:04:20;;;;;;;7.78;5.63;;;15.80;78.20;;;;;;4202065;28;20039;-41
2024/03/01 05:07:03;;;;;;;8.02;5.70;;;15.80;78.40;;;;;;4221471;27;20055;-40
2024/03/01 05:09:45;;;;;;;8.18;6.10;;;15.80;78.30;;;;;;4218763;28;20103;-55
2024/03/01 05:12:26;;;;;;;8.02;6.50;;;15.80;78.40;;;;;;4204303;28;20182;-40
2024/03/01 05:15:08;;;;;;;8.50;6.05;;;15.80;79.30;;;;;;4187396;28;20466;-54
2024/03/01 05:17:49;;;;;;;7.45;6.00;;;15.80;78.60;;;;;;4187332;28;20425;-56
2024/03/01 05:20:30;;;;;;;8.88;5.80;;;15.90;78.30;;;;;;4187756;28;20190;-40
2024/03/01 05:23:13;;;;;;;8.93;6.32;;;15.90;78.30;;;;;;4186561;28;20094;-40
2024/03/01 05:25:54;;;;;;;8.50;6.35;;;15.90;78.10;;;;;;4186938;28;20075;-53
2024/03/01 05:28:35;;;;;;;9.88;6.68;;;15.90;78.30;;;;;;4187170;28;20063;-40
2024/03/01 05:31:16;;;;;;;8.32;6.25;;;15.90;77.90;;;;;;4188167;28;20063;-40
2024/03/01 05:34:00;;;;;;;8.18;6.53;;;15.90;78.60;;;;;;4177352;28;20168;-57
2024/03/01 05:36:41;;;;;;;6.95;5.65;;;15.90;78.00;;;;;;4173404;28;20052;-56
2024/03/01 05:39:24;;;;;;;11.25;7.00;;;15.90;78.00;;;;;;4169087;28;20147;-41
2024/03/01 05:42:06;;;;;;;12.43;7.60;;;15.90;78.00;;;;;;4187282;28;20064;-56
2024/03/01 05:44:47;;;;;;;10.30;6.80;;;15.90;78.10;;;;;;4186233;28;20055;-56
2024/03/01 05:47:28;;;;;;;8.43;6.40;;;15.90;77.70;;;;;;4204269;28;20542;-41
2024/03/01 05:50:11;;;;;;;8.40;6.75;;;15.90;77.70;;;;;;4204312;28;20132;-54
2024/03/01 05:52:52;;;;;;;9.30;7.05;;;15.90;77.60;;;;;;4185819;28;20051;-53
2024/03/01 05:55:35;;;;;;;7.88;6.45;;;16.00;77.60;;;;;;4187440;28;20051;-40
2024/03/01 05:58:17;;;;;;;9.90;7.88;;;16.00;77.70;;;;;;4187053;28;20048;-50
2024/03/01 06:00:59;;;;;;;10.57;7.28;;;16.00;77.60;;;;;;4183851;28;20067;-54
2024/03/01 06:03:40;;;;;;;10.02;7.10;;;16.00;77.50;;;;;;4185218;28;20189;-54
2024/03/01 06:06:22;;;;;;;9.07;6.72;;;16.00;77.10;;;;;;4169329;28;20509;-54
2024/03/01 06:09:04;;;;;;;10.32;7.70;;;16.00;77.10;;;;;;4170622;28;20051;-54
2024/03/01 06:11:47;;;;;;;10.07;7.15;;;16.00;78.00;;;;;;4179149;28;20055;-56
2024/03/01 06:14:28;;;;;;;11.05;7.10;;;16.00;77.30;;;;;;4203389;28;20505;-51
2024/03/01 06:17:09;;;;;;;9.88;7.43;;;16.10;77.00;;;;;;4208291;28;20051;-40
2024/03/01 06:19:50;;;;;;;10.65;7.13;;;16.00;77.00;;;;;;4220539;28;20066;-53
2024/03/01 06:22:32;;;;;;;9.90;7.43;;;16.10;77.00;;;;;;4203319;28;20059;-40
2024/03/01 06:25:13;;;;;;;14.27;7.65;;;16.00;76.70;;;;;;4202936;28;20051;-40
2024/03/01 06:27:56;;;;;;;;;;;16.00;77.10;;;;;;4205860;28;20096;-55
2024/03/01 06:30:37;;;;;;;10.30;7.25;;;16.00;77.20;;;;;;4206783;28;19927;-56
2024/03/01 06:33:20;;;;;;;12.43;7.93;;;15.90;77.60;;;;;;4229639;27;20043;-40
2024/03/01 06:36:03;;;;;;;10.63;7.80;;;15.90;77.50;;;;;;4209762;27;20051;-40
2024/03/01 06:38:44;;;;;;;11.38;7.30;;;15.80;77.80;;;;;;4220734;27;20058;-40
2024/03/01 06:41:26;;;;;;;11.85;8.73;;;15.90;77.80;;;;;;4221758;27;20519;-52
2024/03/01 06:44:08;;;;;;;10.13;7.22;;;15.90;77.60;;;;;;4206465;28;20120;-40
2024/03/01 06:46:49;;;;;;;9.73;7.13;;;16.00;77.40;;;;;;4208447;28;20074;-40
2024/03/01 06:49:30;;;;;;;10.02;7.22;;;16.00;77.10;;;;;;4206989;28;20188;-39
2024/03/01 06:52:12;;;;;;;11.50;7.35;;;16.10;77.30;;;;;;4234634;27;20042;-40
2024/03/01 06:54:52;;;;;;;9.80;7.28;;;16.10;78.10;;;;;;4239307;27;20419;-40
2024/03/01 06:57:33;;;;;;;10.48;7.15;;;16.10;77.20;;;;;;4233378;27;20050;-40
2024/03/01 07:00:17;;;;;;;10.82;7.57;;;16.10;76.80;;;;;;4192248;28;20439;-51
2024/03/01 07:02:58;;;;;;;13.77;7.65;;;16.10;76.30;;;;;;4195147;28;20060;-40
2024/03/01 07:05:39;;;;;;;9.38;7.28;;;16.10;76.20;;;;;;4192891;28;20178;-39
2024/03/01 07:08:20;;;;;;;10.75;7.80;;;16.10;76.00;;;;;;4191361;28;20108;-49
2024/03/01 07:11:03;;;;;;;10.52;7.70;;;16.00;76.10;;;;;;4215107;28;20047;-39
2024/03/01 07:13:44;;;;;;;10.88;7.75;;;16.00;76.10;;;;;;4205214;28;20618;-49
2024/03/01 07:16:27;;;;;;;8.65;6.85;;;16.00;76.20;;;;;;4209265;28;20066;-51
2024/03/01 07:19:08;;;;;;;11.45;7.93;;;16.00;76.30;;;;;;4223366;27;20411;-40
2024/03/01 07:21:49;;;;;;;9.75;6.47;;;16.00;76.60;;;;;;4223660;27;20049;-40
2024/03/01 07:24:30;;;;;;;9.73;6.72;;;16.00;76.20;;;;;;4230152;27;20046;-52
2024/03/01 07:27:10;;;;;;;4.25;3.42;;;16.00;77.10;;;;;;4213649;27;20052;-40
2024/03/01 07:29:51;;;;;;;3.03;2.75;;;16.00;76.80;;;;;;4205226;28;20155;-39
2024/03/01 07:32:35;;;;;;;;;;;16.00;76.20;;;;;;4206195;28;20077;-52
2024/03/01 07:35:16;;;;;;;6.82;3.50;;;16.10;75.70;;;;;;4217610;27;20033;-39
2024/03/01 07:37:57;;;;;;;7.60;5.85;;;16.00;74.90;;;;;;4221916;27;20095;-41
2024/03/01 07:40:39;;;;;;;10.10;3.90;;;16.00;74.00;;;;;;4214032;28;20054;-52
2024/03/01 07:43:19;;;;;;;7.30;4.30;;;16.00;73.60;;;;;;4202490;28;20127;-39
2024/03/01 07:46:01;;;;;;;7.90;4.45;;;16.00;73.10;;;;;;4188284;28;20103;-48
2024/03/01 07:48:46;;;;;;;5.32;3.63;;;16.00;72.80;;;;;;4219496;27;20181;-42
2024/03/01 07:51:26;;;;;;;2.85;2.65;;;16.00;72.60;;;;;;4188684;28;20063;-49
2024/03/01 07:54:09;;;;;;;2.00;1.90;;;16.00;72.30;;;;;;4189448;28;20182;-40
2024/03/01 07:56:50;;;;;;;1.42;1.33;;;16.00;72.00;;;;;;4190263;28;20052;-39
2024/03/01 07:59:31;;;;;;;2.45;1.88;;;16.00;71.30;;;;;;4187729;28;20059;-50
2024/03/01 08:02:12;;;;;;;0.75;0.75;;;15.90;71.00;;;;;;4188007;28;20538;-39
2024/03/01 08:04:55;;;;;;;1.63;1.10;;;15.90;70.60;;;;;;4202509;27;20058;-40
2024/03/01 08:07:36;;;;;;;0.80;0.70;;;15.90;70.30;;;;;;4219904;27;20621;-50
2024/03/01 08:10:18;;;;;;;0.57;0.57;;;15.80;70.30;;;;;;4207555;27;20051;-49
2024/03/01 08:12:58;;;;;;;1.38;0.50;;;15.80;70.50;;;;;;4225179;27;20510;-48
2024/03/01 08:15:41;;;;;;;0.73;0.40;;;15.70;70.50;;;;;;4189849;28;20516;-39
2024/03/01 08:18:24;;;;;;;3.22;0.40;;;15.70;70.50;;;;;;4201790;28;20092;-39
2024/03/01 08:21:07;;;;;;;1.38;0.60;;;15.70;70.30;;;;;;4205071;28;20096;-53
2024/03/01 08:23:48;;;;;;;2.35;0.35;;;15.60;70.20;;;;;;4205449;28;20068;-39
2024/03/01 08:26:30;;;;;;;0.55;0.30;;;15.70;70.00;;;;;;4214139;27;20050;-39
2024/03/01 08:29:11;;;;;;;1.08;0.40;;;15.70;69.90;;;;;;4206820;28;20096;-50
2024/03/01 08:31:52;;;;;;;2.13;0.55;;;15.70;69.60;;;;;;4217443;27;20407;-39
2024/03/01 08:34:43;;;;;;;0.85;0.40;;;15.70;69.20;;;;;;4214703;28;20058;-48
2024/03/01 08:37:27;;;;;;;4.97;0.65;;;15.80;68.70;;;;;;4221907;28;20407;-50
2024/03/01 08:40:34;;;;;;;0.40;0.40;;;15.80;68.20;;;;;;4212058;28;20054;-51
2024/03/01 08:43:16;;;;;;;1.02;0.75;;;15.80;67.80;;;;;;4206800;27;20158;-39
2024/03/01 08:46:01;;;;;;;2.58;0.50;;;15.80;67.70;;;;;;4230442;27;20404;-39
2024/03/01 08:48:43;;;;;;;1.95;0.50;;;15.80;67.10;;;;;;4233343;27;20045;-39
2024/03/01 08:51:24;;;;;;;3.10;0.68;;;15.80;67.90;;;;;;4217380;28;20059;-49
2024/03/01 08:54:09;;;;;;;1.85;0.60;;;15.80;68.30;;;;;;4202752;28;20051;-39
2024/03/01 08:57:02;;;;;;;1.38;0.70;;;15.80;68.80;;;;;;4194928;28;20051;-53
2024/03/01 08:59:47;;;;;;;2.78;0.70;;;15.70;68.70;;;;;;4220628;28;20220;-56
2024/03/01 09:02:46;;;;;;;1.58;0.60;;;15.80;69.10;;;;;;4219347;28;20499;-39
2024/03/01 09:05:30;;;;;;;0.80;0.70;;;15.80;69.60;;;;;;4203491;27;20082;-53
2024/03/01 09:08:18;;;;;;;4.03;1.08;;;15.80;69.40;;;;;;4204249;28;20116;-39
2024/03/01 09:11:00;;;;;;;3.08;0.98;;;15.80;69.00;;;;;;4186357;28;20043;-51
2024/03/01 09:13:44;;;;;;;1.40;0.85;;;15.80;68.70;;;;;;4201157;28;20055;-39
2024/03/01 09:16:25;;;;;;;2.80;1.10;;;15.80;68.50;;;;;;4198028;28;20151;-53
2024/03/01 09:19:18;;;;;;;2.97;0.88;;;15.80;68.30;;;;;;4188132;28;20508;-39
2024/03/01 09:22:00;;;;;;;3.65;0.95;;;15.80;68.00;;;;;;4186952;28;20052;-49
2024/03/01 09:24:43;;;;;;;4.78;0.98;;;15.80;67.80;;;;;;4218595;27;20107;-39
2024/03/01 09:27:31;;;;;;;2.55;1.13;;;15.80;67.70;;;;;;4220139;28;20058;-51
2024/03/01 09:30:16;;;;;;;0.75;0.75;;;15.80;67.40;;;;;;4205197;27;20051;-46
2024/03/01 09:32:57;;;;;;;0.77;0.77;;;15.90;67.40;;;;;;4221295;28;20569;-53
2024/03/01 09:35:39;;;;;;;1.77;0.65;;;16.00;67.10;;;;;;4211788;27;20078;-39
2024/03/01 09:38:22;;;;;;;1.92;0.73;;;16.00;66.90;;;;;;4206175;27;20471;-39
2024/03/01 09:41:30;;;;;;;0.85;0.40;;;16.00;66.80;;;;;;4222381;27;20085;-52
2024/03/01 09:44:28;;;;;;;0.50;0.47;;;16.00;66.80;;;;;;4237322;27;20151;-39
2024/03/01 09:47:18;;;;;;;3.50;0.47;;;16.00;66.80;;;;;;4237390;27;20502;-39
2024/03/01 09:50:15;;;;;;;2.05;0.60;;;15.90;66.70;;;;;;4238261;27;20123;-39
2024/03/01 09:53:10;;;;;;;0.55;0.50;;;15.90;66.50;;;;;;4237039;27;20050;-49
2024/03/01 09:56:00;;;;;;;0.65;0.50;;;15.90;66.30;;;;;;4237043;27;20074;-48
2024/03/01 09:58:50;;;;;;;1.58;0.50;;;15.90;67.00;;;;;;4208901;27;20062;-39
2024/03/01 10:01:37;;;;;;;1.85;0.60;;;15.90;65.60;;;;;;4197766;28;20059;-49
2024/03/01 10:04:30;;;;;;;0.95;0.60;;;15.90;65.10;;;;;;4228912;27;20096;-52
2024/03/01 10:07:24;;;;;;;1.48;0.98;;;15.80;64.90;;;;;;4207631;27;20061;-43
2024/03/01 10:10:34;;;;;;;2.28;1.10;;;15.80;64.70;;;;;;4214252;28;20055;-39
2024/03/01 10:13:30;;;;;;;1.77;1.27;;;15.80;64.90;;;;;;4220057;28;20518;-55
2024/03/01 10:16:23;;;;;;;1.98;1.20;;;15.80;64.60;;;;;;4218757;28;20046;-43
2024/03/01 10:19:12;;;;;;;1.15;1.15;;;15.80;64.50;;;;;;4185648;28;20060;-54
2024/03/01 10:22:05;;;;;;;0.50;0.50;;;15.90;64.30;;;;;;4204487;28;20055;-50
2024/03/01 10:25:00;;;;;;;1.65;0.65;;;15.90;64.00;;;;;;4219007;28;20051;-50
2024/03/01 10:27:49;;;;;;;0.90;0.90;;;15.80;63.60;;;;;;4186642;28;20458;-38
2024/03/01 10:30:32;;;;;;;1.58;0.80;;;15.80;63.60;;;;;;4187626;28;20059;-51
2024/03/01 10:33:27;;;;;;;1.67;0.68;;;15.80;63.60;;;;;;4204022;28;20051;-50
2024/03/01 10:36:14;;;;;;;0.68;0.68;;;15.80;63.50;;;;;;4222181;27;20511;-39
2024/03/01 10:39:02;;;;;;;2.17;0.47;;;15.90;63.30;;;;;;4218909;28;20059;-51
2024/03/01 10:42:00;;;;;;;0.73;0.50;;;15.90;63.30;;;;;;4202773;28;20453;-39
2024/03/01 10:44:44;;;;;;;1.02;0.80;;;15.80;62.90;;;;;;4230387;27;20051;-39
2024/03/01 10:47:28;;;;;;;0.90;0.88;;;15.80;62.80;;;;;;4225408;27;20135;-51
2024/03/01 10:50:15;;;;;;;0.80;0.70;;;15.80;63.00;;;;;;4237481;27;20522;-50
2024/03/01 10:53:04;;;;;;;1.75;0.85;;;15.70;63.20;;;;;;4204983;28;20051;-48
2024/03/01 10:55:55;;;;;;;0.90;0.90;;;15.70;63.70;;;;;;4194402;28;20125;-49
2024/03/01 10:58:39;;;;;;;4.75;0.90;;;15.80;63.40;;;;;;4186810;28;20067;-38
2024/03/01 11:01:26;;;;;;;7.28;1.30;;;15.80;63.00;;;;;;4184465;28;20059;-47
2024/03/01 11:04:15;;;;;;;2.28;1.00;;;15.80;63.50;;;;;;4208461;28;20177;-52
2024/03/01 11:07:11;;;;;;;0.93;0.80;;;15.90;63.90;;;;;;4203062;28;20047;-55
2024/03/01 11:10:00;;;;;;;1.10;0.90;;;16.00;63.10;;;;;;4203345;27;20067;-39
2024/03/01 11:12:50;;;;;;;3.10;1.00;;;16.00;62.70;;;;;;4193675;28;20052;-54
2024/03/01 11:15:32;;;;;;;1.30;1.20;;;16.10;62.50;;;;;;4190367;28;20057;-39
2024/03/01 11:18:18;;;;;;;2.78;1.58;;;16.10;62.40;;;;;;4189416;28;20141;-39
2024/03/01 11:21:05;;;;;;;1.85;1.40;;;16.10;62.50;;;;;;4219547;27;20407;-39
2024/03/01 11:23:54;;;;;;;6.15;1.17;;;16.00;62.70;;;;;;4207802;27;20124;-55
2024/03/01 11:26:43;;;;;;;3.28;1.13;;;16.00;62.80;;;;;;4206214;28;20058;-40
2024/03/01 11:29:32;;;;;;;1.40;1.30;;;16.00;62.80;;;;;;4206584;28;20043;-52
2024/03/01 11:32:18;;;;;;;1.52;1.20;;;16.00;63.10;;;;;;4222557;27;20058;-39
2024/03/01 11:35:06;;;;;;;1.42;1.20;;;15.90;63.80;;;;;;4221726;27;20428;-39
2024/03/01 11:38:00;;;;;;;1.95;1.20;;;15.90;64.10;;;;;;4222757;28;20395;-54
2024/03/01 11:41:05;;;;;;;3.25;1.33;;;15.90;64.00;;;;;;4221984;27;20096;-55
2024/03/01 11:44:08;;;;;;;2.40;1.25;;;15.90;64.20;;;;;;4216015;27;20058;-39
2024/03/01 11:47:05;;;;;;;1.40;1.30;;;15.90;64.20;;;;;;4205257;27;20414;-38
2024/03/01 11:50:04;;;;;;;11.95;2.17;;;15.80;64.20;;;;;;4219243;27;20116;-53
2024/03/01 11:53:01;;;;;;;1.58;1.17;;;15.80;63.90;;;;;;4205024;28;20141;-54
2024/03/01 11:56:00;;;;;;;1.00;1.00;;;15.80;63.40;;;;;;4188503;28;20083;-51
2024/03/01 11:58:53;;;;;;;1.65;1.55;;;15.70;63.00;;;;;;4196520;28;20179;-52
2024/03/01 12:01:43;;;;;;;1.45;1.35;;;15.70;62.90;;;;;;4218137;27;20097;-48
2024/03/01 12:04:49;;;;;;;1.50;1.40;;;15.60;62.90;;;;;;4203946;27;20054;-39
2024/03/01 12:08:01;;;;;;;2.05;1.50;;;15.60;63.00;;;;;;4208149;28;20050;-38
2024/03/01 12:10:58;;;;;;;1.58;1.35;;;15.60;63.20;;;;;;4203921;28;20400;-39
2024/03/01 12:13:45;;;;;;;1.60;1.40;;;15.60;64.00;;;;;;4203822;28;20051;-54
2024/03/01 12:16:39;;;;;;;2.50;1.38;;;15.60;64.50;;;;;;4205364;28;20051;-40
2024/03/01 12:19:28;;;;;;;2.03;1.83;;;15.50;65.10;;;;;;4194935;28;20178;-51
2024/03/01 12:22:29;;;;;;;2.15;1.40;;;15.50;65.60;;;;;;4205806;28;20055;-55
2024/03/01 12:25:10;;;;;;;3.15;1.70;;;15.50;65.10;;;;;;4219623;27;20050;-40
2024/03/01 12:28:08;;;;;;;1.90;1.40;;;15.50;65.20;;;;;;4219167;27;20083;-52
2024/03/01 12:31:01;;;;;;;2.03;1.90;;;15.50;65.40;;;;;;4188085;28;20097;-54
2024/03/01 12:34:08;;;;;;;1.90;1.80;;;15.50;66.30;;;;;;4206911;28;20055;-45
2024/03/01 12:37:01;;;;;;;2.45;1.50;;;15.50;66.70;;;;;;4188017;28;20048;-40
2024/03/01 12:39:49;;;;;;;1.65;1.45;;;15.50;67.00;;;;;;4189762;28;20051;-48
2024/03/01 12:42:40;;;;;;;2.38;1.67;;;15.50;66.80;;;;;;4189582;28;20506;-43
2024/03/01 12:45:34;;;;;;;4.78;1.73;;;15.50;66.60;;;;;;4222495;27;20110;-48
2024/03/01 12:48:26;;;;;;;1.50;1.40;;;15.50;66.60;;;;;;4200123;27;20051;-46
2024/03/01 12:51:14;;;;;;;3.20;1.77;;;15.50;66.70;;;;;;4188014;28;20051;-47
2024/03/01 12:54:02;;;;;;;1.92;1.80;;;15.50;67.00;;;;;;4196900;27;20132;-49
2024/03/01 12:56:50;;;;;;;2.72;1.70;;;15.50;67.40;;;;;;4208412;27;20194;-49
2024/03/01 12:59:49;;;;;;;3.65;1.75;;;15.50;67.80;;;;;;4221263;27;20066;-42
2024/03/01 13:02:45;;;;;;;1.73;1.63;;;15.50;67.90;;;;;;4218241;27;20062;-41
2024/03/01 13:05:27;;;;;;;2.00;1.80;;;15.50;67.90;;;;;;4181389;28;20125;-50
2024/03/01 13:08:17;;;;;;;3.40;1.88;;;15.50;67.80;;;;;;4190326;28;20067;-42
2024/03/01 13:11:04;;;;;;;2.17;2.03;;;15.50;68.10;;;;;;4215162;27;20046;-43
2024/03/01 13:14:02;;;;;;;2.08;1.98;;;15.50;68.40;;;;;;4185834;28;20047;-40
2024/03/01 13:16:43;;;;;;;3.03;2.05;;;15.50;68.90;;;;;;4189634;28;20075;-48
2024/03/01 13:19:29;;;;;;;1.75;1.63;;;15.60;69.20;;;;;;4204928;27;20067;-43
2024/03/01 13:22:13;;;;;;;3.83;2.13;;;15.60;69.60;;;;;;4207192;28;20448;-56
2024/03/01 13:25:03;;;;;;;4.88;2.25;;;15.70;70.00;;;;;;4213806;27;20117;-62
2024/03/01 13:27:56;;;;;;;2.03;1.90;;;15.70;69.90;;;;;;4202822;28;20208;-46
2024/03/01 13:30:38;;;;;;;2.67;1.85;;;15.70;71.30;;;;;;4211002;28;20446;-54
2024/03/01 13:33:39;;;;;;;3.92;2.10;;;15.70;70.20;;;;;;4188931;28;20051;-45
2024/03/01 13:36:24;;;;;;;3.50;1.95;;;15.70;69.00;;;;;;4217134;28;20051;-53
2024/03/01 13:39:26;;;;;;;2.25;2.00;;;15.70;69.00;;;;;;4227679;27;20054;-44
2024/03/01 13:42:30;;;;;;;2.28;1.65;;;15.70;68.80;;;;;;4187495;28;20052;-50
2024/03/01 13:45:27;;;;;;;2.45;2.20;;;15.70;69.10;;;;;;4191155;28;20050;-50
2024/03/01 13:48:09;;;;;;;2.55;2.08;;;15.60;68.60;;;;;;4208059;28;20054;-45
2024/03/01 13:50:54;;;;;;;2.58;2.20;;;15.60;68.60;;;;;;4197456;28;20108;-47
2024/03/01 13:53:34;;;;;;;5.18;2.15;;;15.60;68.40;;;;;;4187350;28;20061;-46
2024/03/01 13:56:16;;;;;;;4.38;2.47;;;15.60;68.50;;;;;;4198300;28;20197;-50
2024/03/01 13:58:57;;;;;;;;;;;15.60;68.50;;;;;;4220922;28;20449;-53
2024/03/01 14:01:39;;;;;;;4.18;2.42;;;15.60;68.60;;;;;;4204653;27;20022;-52
2024/03/01 14:04:20;;;;;;;4.43;2.85;;;15.60;68.90;;;;;;4187058;28;20488;-44
2024/03/01 14:07:02;;;;;;;3.13;2.83;;;15.60;68.70;;;;;;4200299;28;20055;-47
2024/03/01 14:09:47;;;;;;;4.28;3.10;;;15.60;68.50;;;;;;4218047;28;20570;-43
2024/03/01 14:12:29;;;;;;;2.60;2.40;;;15.60;68.50;;;;;;4216672;28;20403;-49
2024/03/01 14:15:11;;;;;;;3.17;2.78;;;15.60;68.40;;;;;;4201630;28;20492;-51
2024/03/01 14:17:54;;;;;;;4.13;3.42;;;15.70;68.60;;;;;;4193445;28;20515;-42
2024/03/01 14:20:35;;;;;;;3.85;3.30;;;15.70;68.30;;;;;;4211450;27;20081;-55